Terminal Aerodrome Forecast
Issued by NWS Central Illinois

Home | Current Version | Previous Version | Text Only | Print | Product List | Glossary On
Versions: 1 2 3 4 5 6 7 8 9 10 11 12 13 14 15 16 17 18 19 20 21 22 23 24 25 26 27 28 29 30 31
000
FTUS43 KILX 240522
TAFPIA
TAF
KPIA 240522Z 2406/2506 VRB03KT P6SM BKN015
     FM240900 05005KT 6SM -SHRA BR OVC008
     FM241400 08007KT 4SM BR VCSH OVC008
     FM241600 09007KT P6SM OVC008
     FM242200 12009KT 5SM -SHRA BR OVC008
     FM250100 17011G23KT P6SM VCSH OVC008 WS020/20040KT=

USA.gov is the U.S. government's official web portal to all federal, state and local government web resources and services.